createdAt,value
2022-10-03T00:01:07.315Z,98203.98
2022-10-03T00:02:21.944Z,98224.98
2022-10-03T00:03:47.114Z,98211.30
2022-10-03T00:05:16.278Z,98203.17
2022-10-03T00:06:42.595Z,98200.64
2022-10-03T00:08:21.113Z,98183.32
2022-10-03T00:09:56.360Z,98208.24
2022-10-03T00:11:22.030Z,98192.89
2022-10-03T00:13:02.075Z,98210.98
2022-10-03T00:14:24.312Z,98194.47
2022-10-03T00:15:29.816Z,98189.98
2022-10-03T00:18:06.637Z,98195.57
2022-10-03T00:19:29.702Z,98191.98
2022-10-03T00:20:38.289Z,98209.16
2022-10-03T00:21:49.467Z,98186.42
2022-10-03T00:23:15.005Z,98188.16
2022-10-03T00:24:23.067Z,98199.49
2022-10-03T00:25:37.563Z,98191.98
2022-10-03T00:26:52.480Z,98204.81
2022-10-03T00:28:02.062Z,98197.91
2022-10-03T00:29:14.343Z,98200.49
2022-10-03T00:30:22.008Z,98180.83
2022-10-03T00:31:39.771Z,98185.66
2022-10-03T00:33:03.595Z,98181.31
2022-10-03T00:34:18.492Z,98197.91
2022-10-03T00:35:42.121Z,98170.16
2022-10-03T00:36:50.498Z,98168.39
2022-10-03T00:38:22.122Z,98189.00
2022-10-03T00:40:02.501Z,98183.17
2022-10-03T00:41:34.000Z,98179.83
2022-10-03T00:44:50.981Z,98176.33
2022-10-03T00:46:17.954Z,98169.30
2022-10-03T00:47:36.027Z,98169.82
2022-10-03T00:49:07.739Z,98171.59
2022-10-03T00:50:45.490Z,98179.16
2022-10-03T00:51:56.523Z,98163.65
2022-10-03T00:53:08.731Z,98174.66
2022-10-03T00:54:26.474Z,98170.49
2022-10-03T00:55:50.038Z,98173.65
2022-10-03T00:57:28.077Z,98170.97
2022-10-03T00:58:45.231Z,98161.64
2022-10-03T01:00:23.591Z,98166.47
2022-10-03T01:01:32.224Z,98168.14
2022-10-03T01:03:00.831Z,98182.41
2022-10-03T01:04:26.177Z,98151.81
2022-10-03T01:05:40.143Z,98187.33
2022-10-03T01:06:48.749Z,98179.67
2022-10-03T01:08:17.435Z,98170.49
2022-10-03T01:09:28.907Z,98173.98
2022-10-03T01:10:49.772Z,98165.08
2022-10-03T01:12:11.214Z,98172.89
2022-10-03T01:13:39.108Z,98180.48
2022-10-03T01:14:56.784Z,98185.66
2022-10-03T01:16:02.417Z,98170.16
2022-10-03T01:17:41.618Z,98173.83
2022-10-03T01:19:02.341Z,98175.47
2022-10-03T01:20:24.658Z,98182.83
2022-10-03T01:21:40.577Z,98168.48
2022-10-03T01:23:01.906Z,98166.47
2022-10-03T01:24:11.496Z,98154.80
2022-10-03T01:25:37.813Z,98173.50
2022-10-03T01:26:47.556Z,98156.47
2022-10-03T01:28:16.222Z,98170.97
2022-10-03T01:29:21.974Z,98164.98
2022-10-03T01:30:24.009Z,98165.89
2022-10-03T01:31:46.486Z,98183.17
2022-10-03T01:33:01.332Z,98167.32
2022-10-03T01:34:06.841Z,98187.48
2022-10-03T01:35:31.217Z,98168.39
2022-10-03T01:36:39.774Z,98180.48
2022-10-03T01:38:11.487Z,98178.16
2022-10-03T01:40:47.432Z,98169.72
2022-10-03T01:41:55.614Z,98164.98
2022-10-03T01:43:22.654Z,98160.82
2022-10-03T01:44:44.695Z,98177.14
2022-10-03T01:46:07.405Z,98172.16
2022-10-03T01:47:32.959Z,98163.31
2022-10-03T01:48:58.055Z,98171.16
2022-10-03T01:50:03.643Z,98174.41
2022-10-03T01:51:14.684Z,98168.91
2022-10-03T01:52:22.969Z,98160.16
2022-10-03T01:54:01.241Z,98168.81
2022-10-03T01:55:22.123Z,98177.81
2022-10-03T01:56:30.276Z,98165.56
2022-10-03T01:57:47.800Z,98173.31
2022-10-03T01:58:56.204Z,98162.31
2022-10-03T02:00:17.014Z,98176.14
2022-10-03T02:01:22.997Z,98165.81
2022-10-03T02:02:43.972Z,98163.16
2022-10-03T02:03:58.815Z,98179.58
2022-10-03T02:05:09.878Z,98175.81
2022-10-03T02:06:33.811Z,98165.66
2022-10-03T02:07:51.470Z,98169.98
2022-10-03T02:09:13.729Z,98164.90
2022-10-03T02:10:44.276Z,98163.84
2022-10-03T02:11:52.783Z,98160.64
2022-10-03T02:13:13.679Z,98178.33
2022-10-03T02:14:34.297Z,98177.48
2022-10-03T02:15:50.096Z,98174.17
2022-10-03T02:17:13.585Z,98173.41
2022-10-03T02:18:52.856Z,98167.14
2022-10-03T02:20:04.062Z,98174.90
2022-10-03T02:21:25.094Z,98167.33
2022-10-03T02:22:36.505Z,98165.66
2022-10-03T02:23:44.167Z,98178.58
2022-10-03T02:24:52.451Z,98154.56
2022-10-03T02:26:15.978Z,98168.24
2022-10-03T02:27:41.448Z,98163.16
2022-10-03T02:29:06.468Z,98167.48
2022-10-03T02:30:14.920Z,98169.00
2022-10-03T02:31:38.217Z,98169.82
2022-10-03T02:32:53.159Z,98169.25
2022-10-03T02:34:17.089Z,98167.09
2022-10-03T02:35:41.045Z,98170.49
2022-10-03T02:37:03.609Z,98169.00
2022-10-03T02:38:15.671Z,98155.14
2022-10-03T02:39:37.948Z,98160.31
2022-10-03T02:42:28.122Z,98163.22
2022-10-03T02:44:06.008Z,98157.38
2022-10-03T02:46:49.058Z,98162.31
2022-10-03T02:48:08.424Z,98170.58
2022-10-03T02:49:35.943Z,98172.31
2022-10-03T02:50:59.838Z,98149.00
2022-10-03T02:52:31.441Z,98177.58
2022-10-03T02:53:50.302Z,98168.81
2022-10-03T02:55:12.795Z,98161.83
2022-10-03T02:56:30.322Z,98156.66
2022-10-03T02:58:04.455Z,98162.55
2022-10-03T02:59:42.180Z,98159.33
2022-10-03T03:00:59.874Z,98165.80
2022-10-03T03:02:21.899Z,98165.33
2022-10-03T03:03:27.543Z,98166.33
2022-10-03T03:04:35.592Z,98161.98
2022-10-03T03:06:00.938Z,98176.57
2022-10-03T03:07:23.081Z,98161.98
2022-10-03T03:08:48.547Z,98165.48
2022-10-03T03:10:03.255Z,98161.25
2022-10-03T03:11:32.788Z,98148.33
2022-10-03T03:13:10.076Z,98161.83
2022-10-03T03:14:15.533Z,98161.73
2022-10-03T03:15:41.139Z,98157.48
2022-10-03T03:16:55.974Z,98158.67
2022-10-03T03:18:07.625Z,98156.56
2022-10-03T03:19:13.087Z,98155.66
2022-10-03T03:20:25.206Z,98146.89
2022-10-03T03:21:43.308Z,98148.81
2022-10-03T03:23:11.927Z,98154.65
2022-10-03T03:24:20.378Z,98155.41
2022-10-03T03:25:35.777Z,98157.33
2022-10-03T03:26:57.856Z,98165.33
2022-10-03T03:28:12.541Z,98154.08
2022-10-03T03:29:21.144Z,98142.55
2022-10-03T03:30:26.838Z,98162.40
2022-10-03T03:31:46.928Z,98161.64
2022-10-03T03:33:07.812Z,98166.81
2022-10-03T03:34:29.937Z,98159.91
2022-10-03T03:35:38.579Z,98158.33
2022-10-03T03:36:44.144Z,98153.16
2022-10-03T03:37:55.939Z,98161.83
2022-10-03T03:40:31.069Z,98135.45
2022-10-03T03:41:48.032Z,98145.31
2022-10-03T03:42:56.498Z,98148.81
2022-10-03T03:44:33.218Z,98154.73
2022-10-03T03:46:07.517Z,98137.72
2022-10-03T03:47:31.547Z,98153.31
2022-10-03T03:49:06.162Z,98140.39
2022-10-03T03:50:30.385Z,98144.47
2022-10-03T03:51:44.435Z,98147.90
2022-10-03T03:53:06.723Z,98145.31
2022-10-03T03:54:32.165Z,98135.80
2022-10-03T03:55:41.255Z,98146.98
2022-10-03T03:57:06.970Z,98141.72
2022-10-03T03:58:15.473Z,98137.31
2022-10-03T03:59:39.415Z,98156.81
2022-10-03T04:00:59.596Z,98155.14
2022-10-03T04:02:14.357Z,98140.14
2022-10-03T04:03:32.198Z,98150.30
2022-10-03T04:04:52.586Z,98165.98
2022-10-03T04:06:10.397Z,98151.30
2022-10-03T04:07:41.392Z,98161.48
2022-10-03T04:08:50.043Z,98164.83
2022-10-03T04:09:55.556Z,98159.56
2022-10-03T04:11:24.411Z,98154.65
2022-10-03T04:12:59.521Z,98156.31
2022-10-03T04:14:17.449Z,98154.65
2022-10-03T04:15:52.336Z,98155.56
2022-10-03T04:17:07.161Z,98157.14
2022-10-03T04:18:41.326Z,98154.48
2022-10-03T04:20:09.989Z,98156.47
2022-10-03T04:21:33.841Z,98156.66
2022-10-03T04:23:00.008Z,98165.33
2022-10-03T04:24:27.544Z,98153.31
2022-10-03T04:25:38.809Z,98156.66
2022-10-03T04:27:02.500Z,98166.14
2022-10-03T04:28:29.657Z,98161.16
2022-10-03T04:29:47.437Z,98162.89
2022-10-03T04:31:09.359Z,98166.08
2022-10-03T04:32:36.171Z,98161.98
2022-10-03T04:33:51.783Z,98155.74
2022-10-03T04:35:16.971Z,98165.80
2022-10-03T04:36:31.284Z,98162.49
2022-10-03T04:37:53.800Z,98168.81
2022-10-03T04:39:09.131Z,98167.14
2022-10-03T04:40:27.859Z,98163.65
2022-10-03T04:41:43.209Z,98159.64
2022-10-03T04:42:54.984Z,98158.82
2022-10-03T04:44:22.150Z,98162.22
2022-10-03T04:45:52.237Z,98158.16
2022-10-03T04:47:03.589Z,98159.73
2022-10-03T04:48:32.589Z,98156.33
2022-10-03T04:49:44.489Z,98163.98
2022-10-03T04:51:02.365Z,98160.49
2022-10-03T04:52:17.081Z,98164.90
2022-10-03T04:53:48.630Z,98169.98
2022-10-03T04:55:17.218Z,98167.66
2022-10-03T04:56:39.749Z,98163.23
2022-10-03T04:57:48.278Z,98167.41
2022-10-03T04:58:55.912Z,98168.48
2022-10-03T05:00:14.033Z,98164.16
2022-10-03T05:02:48.464Z,98156.89
2022-10-03T05:04:00.149Z,98166.33
2022-10-03T05:05:28.867Z,98166.42
2022-10-03T05:08:45.661Z,98160.58
2022-10-03T05:10:10.301Z,98168.06
2022-10-03T05:11:14.973Z,98161.98
2022-10-03T05:12:26.689Z,98164.66
2022-10-03T05:13:53.071Z,98154.08
2022-10-03T05:16:20.620Z,98160.67
2022-10-03T05:17:26.324Z,98173.50
2022-10-03T05:18:47.300Z,98171.83
2022-10-03T05:19:53.073Z,98176.75
2022-10-03T05:21:05.034Z,98169.47
2022-10-03T05:22:29.217Z,98174.22
2022-10-03T05:23:52.667Z,98179.82
2022-10-03T05:25:15.126Z,98179.00
2022-10-03T05:27:38.649Z,98175.38
2022-10-03T05:28:47.136Z,98185.48
2022-10-03T05:30:04.959Z,98178.14
2022-10-03T05:31:36.892Z,98179.66
2022-10-03T05:32:42.727Z,98176.26
2022-10-03T05:35:21.372Z,98179.50
2022-10-03T05:36:28.052Z,98183.14
2022-10-03T05:37:52.481Z,98185.94
2022-10-03T05:39:01.148Z,98177.16
2022-10-03T05:40:22.167Z,98181.27
2022-10-03T05:41:31.757Z,98183.41
2022-10-03T05:42:52.144Z,98173.64
2022-10-03T05:44:05.059Z,98171.61
2022-10-03T05:45:26.013Z,98163.16
2022-10-03T05:47:01.014Z,98173.67
2022-10-03T05:48:30.686Z,98173.44
2022-10-03T05:49:45.094Z,98169.55
2022-10-03T05:51:09.913Z,98171.23
2022-10-03T05:52:30.713Z,98181.11
2022-10-03T05:53:55.993Z,98162.81
2022-10-03T05:55:22.653Z,98174.52
2022-10-03T05:57:00.124Z,98178.55
2022-10-03T05:59:34.654Z,98179.03
2022-10-03T06:01:15.454Z,98181.76
2022-10-03T06:02:39.086Z,98185.43
2022-10-03T06:04:06.905Z,98182.84
2022-10-03T06:05:21.630Z,98178.84
2022-10-03T06:06:42.540Z,98190.61
2022-10-03T06:08:05.924Z,98185.72
2022-10-03T06:09:35.507Z,98190.48
2022-10-03T06:10:47.581Z,98192.81
2022-10-03T06:11:59.112Z,98191.14
2022-10-03T06:13:07.614Z,98196.66
2022-10-03T06:14:16.281Z,98196.95
2022-10-03T06:15:44.893Z,98200.13
2022-10-03T06:17:10.245Z,98208.83
2022-10-03T06:18:18.712Z,98186.44
2022-10-03T06:19:48.681Z,98190.70
2022-10-03T06:21:28.094Z,98201.10
2022-10-03T06:22:45.650Z,98191.82
2022-10-03T06:24:00.084Z,98198.02
2022-10-03T06:25:37.933Z,98206.12
2022-10-03T06:26:46.339Z,98205.92
2022-10-03T06:28:16.599Z,98203.63
2022-10-03T06:29:47.930Z,98198.11
2022-10-03T06:31:15.025Z,98199.69
2022-10-03T06:32:37.056Z,98211.86
2022-10-03T06:34:00.645Z,98207.98
2022-10-03T06:35:30.795Z,98212.81
2022-10-03T06:36:57.920Z,98217.75
2022-10-03T06:38:21.447Z,98208.89
2022-10-03T06:39:58.668Z,98206.34
2022-10-03T06:41:25.592Z,98207.85
2022-10-03T06:42:52.456Z,98202.42
2022-10-03T06:44:01.362Z,98200.83
2022-10-03T06:45:32.265Z,98208.13
2022-10-03T06:47:02.326Z,98218.95
2022-10-03T06:48:14.936Z,98223.63
2022-10-03T06:49:50.815Z,98227.98
2022-10-03T06:50:59.602Z,98229.91
2022-10-03T06:52:10.908Z,98222.50
2022-10-03T06:53:34.096Z,98219.07
2022-10-03T06:55:02.560Z,98218.61
2022-10-03T06:56:33.806Z,98215.83
2022-10-03T06:57:45.104Z,98222.52
2022-10-03T06:58:56.812Z,98222.45
2022-10-03T07:00:05.176Z,98228.55
2022-10-03T07:01:27.396Z,98219.92
2022-10-03T07:02:57.278Z,98234.55
2022-10-03T07:04:31.140Z,98242.14
2022-10-03T07:06:03.955Z,98228.34
2022-10-03T07:07:38.426Z,98219.14
2022-10-03T07:08:48.013Z,98240.02
2022-10-03T07:09:53.528Z,98231.59
2022-10-03T07:10:59.225Z,98237.98
2022-10-03T07:13:45.014Z,98233.20
2022-10-03T07:14:56.985Z,98227.75
2022-10-03T07:16:36.955Z,98230.73
2022-10-03T07:17:48.361Z,98243.88
2022-10-03T07:18:59.928Z,98240.58
2022-10-03T07:20:31.678Z,98271.36
2022-10-03T07:21:46.730Z,98268.87
2022-10-03T07:23:28.116Z,98241.89
2022-10-03T07:24:45.905Z,98264.02
2022-10-03T07:26:09.891Z,98250.09
2022-10-03T07:27:45.298Z,98247.89
2022-10-03T07:29:22.680Z,98247.94
2022-10-03T07:30:27.893Z,98247.89
2022-10-03T07:31:53.665Z,98241.34
2022-10-03T07:33:22.290Z,98240.22
2022-10-03T07:34:45.191Z,98238.25
2022-10-03T07:35:56.371Z,98250.21
2022-10-03T07:37:08.259Z,98244.52
2022-10-03T07:38:37.581Z,98242.64
2022-10-03T07:39:52.938Z,98243.23
2022-10-03T07:41:23.655Z,98236.83
2022-10-03T07:42:29.166Z,98247.42
2022-10-03T07:44:05.401Z,98234.48
2022-10-03T07:45:32.337Z,98244.64
2022-10-03T07:47:03.590Z,98237.00
2022-10-03T07:48:42.726Z,98238.02
2022-10-03T07:50:13.951Z,98232.25
2022-10-03T07:51:45.750Z,98235.20
2022-10-03T07:52:57.186Z,98240.58
2022-10-03T07:54:12.800Z,98236.71
2022-10-03T07:55:34.908Z,98235.20
2022-10-03T07:56:53.888Z,98238.41
2022-10-03T07:58:15.382Z,98229.43
2022-10-03T07:59:38.942Z,98221.95
2022-10-03T08:01:08.032Z,98229.41
2022-10-03T08:02:34.885Z,98228.03
2022-10-03T08:04:02.177Z,98224.72
2022-10-03T08:05:16.328Z,98223.80
2022-10-03T08:06:37.009Z,98230.98
2022-10-03T08:08:16.198Z,98224.16
2022-10-03T08:09:48.589Z,98226.45
2022-10-03T08:11:04.279Z,98226.29
2022-10-03T08:12:32.294Z,98226.74
2022-10-03T08:14:08.213Z,98231.55
2022-10-03T08:15:29.787Z,98222.98
2022-10-03T08:17:01.700Z,98227.79
2022-10-03T08:18:13.011Z,98219.84
2022-10-03T08:19:38.022Z,98222.33
2022-10-03T08:20:49.694Z,98222.16
2022-10-03T08:22:07.628Z,98220.94
2022-10-03T08:23:33.981Z,98221.59
2022-10-03T08:25:07.131Z,98223.53
2022-10-03T08:26:13.795Z,98221.78
2022-10-03T08:27:36.188Z,98217.45
2022-10-03T08:28:45.039Z,98221.78
2022-10-03T08:30:03.367Z,98216.59
2022-10-03T08:31:31.093Z,98213.09
2022-10-03T08:32:48.751Z,98218.09
2022-10-03T08:34:13.630Z,98211.50
2022-10-03T08:35:52.863Z,98217.16
2022-10-03T08:37:13.443Z,98215.91
2022-10-03T08:38:35.484Z,98215.91
2022-10-03T08:40:06.252Z,98216.77
2022-10-03T08:41:28.605Z,98217.30
2022-10-03T08:42:49.355Z,98226.55
2022-10-03T08:44:06.975Z,98221.92
2022-10-03T08:45:46.423Z,98222.64
2022-10-03T08:46:52.229Z,98225.69
2022-10-03T08:48:25.189Z,98240.66
2022-10-03T08:49:46.351Z,98232.69
2022-10-03T08:51:24.524Z,98223.77
2022-10-03T08:52:43.541Z,98243.52
2022-10-03T08:54:23.539Z,98231.27
2022-10-03T08:55:35.218Z,98219.03
2022-10-03T08:56:51.228Z,98228.48
2022-10-03T08:58:05.964Z,98237.20
2022-10-03T08:59:15.501Z,98233.56
2022-10-03T09:00:45.570Z,98239.50
2022-10-03T09:03:54.313Z,98241.06
2022-10-03T09:07:18.287Z,98239.66
2022-10-03T09:08:30.463Z,98238.16
2022-10-03T09:10:03.987Z,98235.04
2022-10-03T09:11:18.398Z,98234.00
2022-10-03T09:12:30.122Z,98228.53
2022-10-03T09:13:59.966Z,98243.70
2022-10-03T09:15:12.070Z,98236.91
2022-10-03T09:16:26.970Z,98231.09
2022-10-03T09:17:41.880Z,98233.41
2022-10-03T09:18:59.558Z,98236.34
2022-10-03T09:20:17.465Z,98235.11
2022-10-03T09:21:42.324Z,98235.34
2022-10-03T09:23:06.137Z,98242.42
2022-10-03T09:24:17.601Z,98227.98
2022-10-03T09:25:30.083Z,98237.44
2022-10-03T09:26:44.908Z,98235.16
2022-10-03T09:28:13.319Z,98238.08
2022-10-03T09:29:34.091Z,98236.84
2022-10-03T09:30:49.236Z,98253.06
2022-10-03T09:32:01.019Z,98261.48
2022-10-03T09:33:21.356Z,98251.70
2022-10-03T09:34:43.770Z,98235.88
2022-10-03T09:36:04.578Z,98240.80
2022-10-03T09:37:22.477Z,98267.31
2022-10-03T09:38:48.953Z,98230.91
2022-10-03T09:40:14.018Z,98257.84
2022-10-03T09:41:31.706Z,98257.22
2022-10-03T09:42:49.697Z,98274.29
2022-10-03T09:43:58.845Z,98242.78
2022-10-03T09:45:24.474Z,98246.50
2022-10-03T09:46:41.899Z,98242.42
2022-10-03T09:47:47.627Z,98244.39
2022-10-03T09:49:03.110Z,98247.05
2022-10-03T09:50:43.251Z,98238.20
2022-10-03T09:51:54.795Z,98244.02
2022-10-03T09:53:06.571Z,98229.92
2022-10-03T09:54:38.341Z,98231.42
2022-10-03T09:55:44.901Z,98251.07
2022-10-03T09:57:10.132Z,98239.11
2022-10-03T09:58:16.800Z,98243.05
2022-10-03T09:59:32.128Z,98240.00
2022-10-03T10:00:56.815Z,98242.81
2022-10-03T10:02:05.585Z,98250.51
2022-10-03T10:03:29.997Z,98245.66
2022-10-03T10:04:55.812Z,98267.42
2022-10-03T10:06:14.365Z,98225.16
2022-10-03T10:07:35.923Z,98249.20
2022-10-03T10:08:58.416Z,98243.58
2022-10-03T10:10:25.458Z,98252.78
2022-10-03T10:11:39.924Z,98243.42
2022-10-03T10:13:14.582Z,98244.23
2022-10-03T10:14:41.383Z,98256.32
2022-10-03T10:16:15.406Z,98250.05
2022-10-03T10:17:26.787Z,98264.66
2022-10-03T10:18:58.399Z,98229.62
2022-10-03T10:20:09.680Z,98268.56
2022-10-03T10:21:29.929Z,98248.30
2022-10-03T10:22:53.227Z,98254.45
2022-10-03T10:24:11.025Z,98250.17
2022-10-03T10:25:23.084Z,98296.31
2022-10-03T10:26:58.877Z,98256.59
2022-10-03T10:28:16.817Z,98254.89
2022-10-03T10:29:28.449Z,98265.52
2022-10-03T10:30:52.365Z,98250.14
2022-10-03T10:32:21.725Z,98255.34
2022-10-03T10:33:43.373Z,98250.87
2022-10-03T10:34:58.066Z,98253.67
2022-10-03T10:36:26.673Z,98256.28
2022-10-03T10:37:47.163Z,98250.26
2022-10-03T10:39:15.495Z,98268.69
2022-10-03T10:40:40.029Z,98260.75
2022-10-03T10:41:57.497Z,98256.61
2022-10-03T10:43:18.561Z,98249.73
2022-10-03T10:44:47.022Z,98250.91
2022-10-03T10:46:09.844Z,98251.03
2022-10-03T10:47:25.279Z,98268.80
2022-10-03T10:48:33.351Z,98272.02
2022-10-03T10:50:11.275Z,98262.22
2022-10-03T10:51:16.921Z,98273.45
2022-10-03T10:52:28.827Z,98278.45
2022-10-03T10:54:00.610Z,98262.70
2022-10-03T10:55:09.588Z,98265.07
2022-10-03T10:56:44.460Z,98261.32
2022-10-03T10:58:07.558Z,98255.39
2022-10-03T10:59:42.239Z,98267.59
2022-10-03T11:01:22.007Z,98266.53
2022-10-03T11:02:49.290Z,98260.14
2022-10-03T11:04:10.255Z,98263.02
2022-10-03T11:05:49.735Z,98277.38
2022-10-03T11:07:13.770Z,98266.72
2022-10-03T11:08:52.399Z,98266.62
2022-10-03T11:10:20.869Z,98258.23
2022-10-03T11:11:52.623Z,98267.59
2022-10-03T11:13:15.698Z,98275.66
2022-10-03T11:14:36.231Z,98274.08
2022-10-03T11:16:15.951Z,98280.87
2022-10-03T11:17:39.592Z,98267.84
2022-10-03T11:19:10.931Z,98271.14
2022-10-03T11:20:33.369Z,98272.14
2022-10-03T11:22:03.695Z,98288.01
2022-10-03T11:23:26.998Z,98275.09
2022-10-03T11:24:56.503Z,98275.44
2022-10-03T11:26:24.459Z,98275.89
2022-10-03T11:27:48.553Z,98278.63
2022-10-03T11:28:57.038Z,98283.23
2022-10-03T11:30:28.119Z,98263.05
2022-10-03T11:31:49.941Z,98281.29
2022-10-03T11:33:24.718Z,98270.20
2022-10-03T11:36:19.050Z,98262.84
2022-10-03T11:37:58.277Z,98262.70
2022-10-03T11:40:28.588Z,98271.00
2022-10-03T11:41:52.488Z,98258.98
2022-10-03T11:43:17.381Z,98265.40
2022-10-03T11:44:22.917Z,98274.11
2022-10-03T11:45:34.359Z,98273.19
2022-10-03T11:47:00.983Z,98271.05
2022-10-03T11:48:06.643Z,98277.67
2022-10-03T11:49:30.826Z,98259.42
2022-10-03T11:50:40.208Z,98284.55
2022-10-03T11:51:53.780Z,98273.41
2022-10-03T11:53:05.208Z,98278.86
2022-10-03T11:54:30.602Z,98283.94
2022-10-03T11:55:44.263Z,98292.09
2022-10-03T11:56:52.904Z,98270.30
2022-10-03T11:58:29.800Z,98258.95
2022-10-03T11:59:35.909Z,98281.95
2022-10-03T12:00:41.546Z,98272.72
2022-10-03T12:02:06.209Z,98289.55
2022-10-03T12:03:26.974Z,98285.03
2022-10-03T12:04:49.260Z,98292.16
2022-10-03T12:05:58.162Z,98284.00
2022-10-03T12:07:03.892Z,98288.14
2022-10-03T12:08:18.792Z,98271.30
2022-10-03T12:09:30.456Z,98285.53
2022-10-03T12:10:49.235Z,98314.85
2022-10-03T12:12:01.033Z,98293.73
2022-10-03T12:13:06.825Z,98277.96
2022-10-03T12:14:35.228Z,98287.19
2022-10-03T12:15:49.922Z,98278.92
2022-10-03T12:17:13.158Z,98295.52
2022-10-03T12:18:35.620Z,98269.77
2022-10-03T12:19:50.626Z,98271.77
2022-10-03T12:21:11.380Z,98261.00
2022-10-03T12:22:40.085Z,98265.96
2022-10-03T12:23:59.499Z,98293.14
2022-10-03T12:25:23.174Z,98272.72
2022-10-03T12:26:52.824Z,98282.45
2022-10-03T12:28:11.303Z,98286.48
2022-10-03T12:29:17.262Z,98280.09
2022-10-03T12:30:21.005Z,98285.78
2022-10-03T12:31:31.086Z,98273.94
2022-10-03T12:32:50.107Z,98293.61
2022-10-03T12:34:25.387Z,98283.27
2022-10-03T12:35:47.731Z,98272.94
2022-10-03T12:37:23.535Z,98300.45
2022-10-03T12:38:38.845Z,98274.38
2022-10-03T12:39:53.582Z,98286.56
2022-10-03T12:41:15.097Z,98288.09
2022-10-03T12:42:26.875Z,98277.41
2022-10-03T12:43:44.708Z,98285.48
2022-10-03T12:44:55.751Z,98275.66
2022-10-03T12:46:01.893Z,98289.16
2022-10-03T12:47:24.367Z,98292.28
2022-10-03T12:48:31.419Z,98291.85
2022-10-03T12:49:39.718Z,98285.96
2022-10-03T12:50:51.442Z,98294.72
2022-10-03T12:52:00.635Z,98278.13
2022-10-03T12:53:21.206Z,98271.55
2022-10-03T12:54:35.747Z,98283.55
2022-10-03T12:55:42.357Z,98282.40
2022-10-03T12:56:50.689Z,98285.00
2022-10-03T12:57:59.635Z,98281.42
2022-10-03T13:00:24.631Z,98281.02
2022-10-03T13:01:49.194Z,98281.47
2022-10-03T13:03:11.736Z,98297.06
2022-10-03T13:04:40.115Z,98292.28
2022-10-03T13:05:58.293Z,98312.77
2022-10-03T13:07:24.009Z,98311.53
2022-10-03T13:08:50.860Z,98305.86
2022-10-03T13:10:06.561Z,98310.77
2022-10-03T13:11:24.409Z,98309.60
2022-10-03T13:12:33.330Z,98321.98
2022-10-03T13:13:55.787Z,98307.94
2022-10-03T13:15:21.158Z,98315.66
2022-10-03T13:17:00.556Z,98293.30
2022-10-03T13:18:25.412Z,98300.05
2022-10-03T13:19:37.005Z,98294.47
2022-10-03T13:20:42.685Z,98288.22
2022-10-03T13:22:15.758Z,98294.05
2022-10-03T13:24:49.024Z,98292.27
2022-10-03T13:25:57.038Z,98296.30
2022-10-03T13:27:25.340Z,98287.38
2022-10-03T13:28:52.731Z,98285.05
2022-10-03T13:30:01.462Z,98277.47
2022-10-03T13:31:09.942Z,98291.53
2022-10-03T13:32:33.781Z,98288.70
2022-10-03T13:33:45.440Z,98294.86
2022-10-03T13:35:02.726Z,98283.18
2022-10-03T13:36:25.092Z,98280.38
2022-10-03T13:37:33.738Z,98279.64
2022-10-03T13:39:12.954Z,98289.12
2022-10-03T13:40:18.180Z,98285.27
2022-10-03T13:41:32.322Z,98283.98
2022-10-03T13:42:47.524Z,98274.30
2022-10-03T13:43:53.370Z,98282.84
2022-10-03T13:44:58.826Z,98299.89
2022-10-03T13:46:04.707Z,98287.50
2022-10-03T13:47:19.309Z,98293.95
2022-10-03T13:48:24.805Z,98302.37
2022-10-03T13:49:30.282Z,98301.77
2022-10-03T13:51:00.646Z,98296.29
2022-10-03T13:52:23.777Z,98300.77
2022-10-03T13:53:42.288Z,98336.06
2022-10-03T13:55:13.873Z,98343.12
2022-10-03T13:56:37.193Z,98320.09
2022-10-03T13:57:45.933Z,98323.63
2022-10-03T13:59:08.967Z,98309.15
2022-10-03T14:00:17.463Z,98309.18
2022-10-03T14:01:35.901Z,98306.68
2022-10-03T14:03:06.247Z,98310.26
2022-10-03T14:04:30.086Z,98314.83
2022-10-03T14:05:56.732Z,98310.67
2022-10-03T14:07:11.576Z,98302.67
2022-10-03T14:08:34.554Z,98295.06
2022-10-03T14:10:00.524Z,98288.23
2022-10-03T14:12:55.391Z,98306.94
2022-10-03T14:14:02.117Z,98302.58
2022-10-03T14:15:38.786Z,98294.24
2022-10-03T14:16:45.416Z,98296.84
2022-10-03T14:17:53.754Z,98295.72
2022-10-03T14:19:05.179Z,98293.11
2022-10-03T14:20:30.629Z,98285.63
2022-10-03T14:21:56.208Z,98295.72
2022-10-03T14:23:11.268Z,98294.24
2022-10-03T14:24:37.415Z,98283.42
2022-10-03T14:25:49.082Z,98286.98
2022-10-03T14:27:10.009Z,98286.02
2022-10-03T14:28:22.317Z,98274.69
2022-10-03T14:29:53.017Z,98289.24
2022-10-03T14:32:48.104Z,98284.77
2022-10-03T14:33:56.704Z,98291.53
2022-10-03T14:35:25.202Z,98288.62
2022-10-03T14:36:58.262Z,98279.03
2022-10-03T14:38:20.897Z,98280.50
2022-10-03T14:39:41.617Z,98282.98
2022-10-03T14:40:49.783Z,98285.48
2022-10-03T14:42:04.984Z,98289.04
2022-10-03T14:43:30.271Z,98285.48
2022-10-03T14:44:38.754Z,98290.48
2022-10-03T14:45:47.425Z,98288.38
2022-10-03T14:46:57.417Z,98285.05
2022-10-03T14:48:06.051Z,98283.18
2022-10-03T14:49:31.213Z,98291.72
2022-10-03T14:50:22.784Z,98290.05
2022-10-03T14:51:40.251Z,98285.78
2022-10-03T14:53:01.780Z,98279.84
2022-10-03T14:54:07.418Z,98286.63
2022-10-03T14:55:17.945Z,98267.45
2022-10-03T14:56:22.408Z,98282.98
2022-10-03T14:57:52.890Z,98277.55
2022-10-03T14:58:46.185Z,98281.93
2022-10-03T14:59:52.020Z,98280.27
2022-10-03T15:01:09.903Z,98280.14
2022-10-03T15:02:27.761Z,98274.01
2022-10-03T15:03:34.131Z,98276.41
2022-10-03T15:04:39.621Z,98268.60
2022-10-03T15:05:58.105Z,98265.27
2022-10-03T15:07:01.935Z,98277.34
2022-10-03T15:08:09.846Z,98273.80
2022-10-03T15:09:18.353Z,98270.27
2022-10-03T15:10:23.751Z,98277.11
2022-10-03T15:11:35.520Z,98285.65
2022-10-03T15:12:41.117Z,98279.39
2022-10-03T15:13:52.670Z,98283.78
2022-10-03T15:14:58.254Z,98275.04
2022-10-03T15:16:02.134Z,98284.83
2022-10-03T15:17:16.107Z,98277.84
2022-10-03T15:18:21.839Z,98277.72
2022-10-03T15:19:42.550Z,98274.42
2022-10-03T15:20:46.967Z,98281.50
2022-10-03T15:21:52.525Z,98279.02
2022-10-03T15:22:57.943Z,98281.61
2022-10-03T15:24:07.325Z,98273.80
2022-10-03T15:25:15.699Z,98279.33
2022-10-03T15:26:20.633Z,98281.08
2022-10-03T15:27:26.592Z,98272.34
2022-10-03T15:28:46.254Z,98284.64
2022-10-03T15:30:00.955Z,98272.57
2022-10-03T15:31:12.551Z,98277.86
2022-10-03T15:32:21.071Z,98277.98
2022-10-03T15:33:32.221Z,98277.78
2022-10-03T15:34:40.690Z,98278.83
2022-10-03T15:35:46.288Z,98276.42
2022-10-03T15:36:55.191Z,98274.64
2022-10-03T15:38:12.673Z,98270.28
2022-10-03T15:39:29.993Z,98267.57
2022-10-03T15:40:36.753Z,98279.64
2022-10-03T15:41:54.458Z,98279.84
2022-10-03T15:43:16.596Z,98268.63
2022-10-03T15:44:25.013Z,98273.82
2022-10-03T15:45:29.798Z,98290.05
2022-10-03T15:46:35.554Z,98273.63
2022-10-03T15:47:43.446Z,98277.98
2022-10-03T15:48:49.486Z,98264.03
2022-10-03T15:49:57.720Z,98275.26
2022-10-03T15:51:02.554Z,98281.31
2022-10-03T15:52:24.199Z,98281.52
2022-10-03T15:53:36.668Z,98281.31
2022-10-03T15:54:38.337Z,98280.14
2022-10-03T15:55:43.965Z,98275.88
2022-10-03T15:56:49.562Z,98273.27
2022-10-03T15:57:55.062Z,98276.84
2022-10-03T15:59:03.397Z,98276.72
2022-10-03T16:00:06.994Z,98268.80
2022-10-03T16:01:23.534Z,98280.88
2022-10-03T16:02:32.439Z,98279.83